< < Back
Terminal Aerodrome Forecast


Current Version              Previous Versions:   1  2  3  4  5  6  7  8  9  

Terminal Aerodrome Forecast

536
FTUS42 KGSP 100533
TAFAND
TAF
KAND 100533Z 1006/1106 27012KT P6SM FEW050 SCT090
     FM101600 27016G24KT P6SM FEW050 SCT150
     FM110000 26009KT P6SM FEW120=

Latest METAR

993
SAUS70 KWBC 111000 RRA
MTRAND
METAR KAND 110956Z AUTO 20003KT 10SM CLR M03/M09 A3014 RMK AO2 SLP211
T10281089


USA.gov is the U.S. government's official web portal to all federal, state and local government web resources and services.